PWSweather.com
Personal Weather Stations
Station Observations
WATERF01
WaterfordIE

WaterfordIE

Lat: 52.2412507, Lon: -7.1414691

Elevation: 65

Station Type: Davis Vantage Vue

www.waterfordweather.com

High Low Average
Temperature 44.2°F6.8°C 33.2°F0.7°C 39.2°F4.0°C
Dew Point 40.7°F4.8°C 28.9°F-1.7°C 32.9°F0.5°C
Winds 24.2 mph 38.9 kmh Calm Calm 6.0 mph W9.7 kmh W
Wind Gusts 35.7 mph57.5 kmh -- 10.0 mph16.1 kmh
Humidity 89% 60% 78%
Pressure 29.68 in1005.1 mb 29.23 in989.8 mb -
Precipitation 0.14 in3.6 mm - -
Hour Temp Dew Point Humidity Winds Wind Gusts Pressure Precip Precip Rate Daily Precip Total
12:00 AM 43.7°F6.5°C 40.4°F4.7°C 88% 18.4 mph SSW29.6 kmh SSW 25.3 mph40.7 kmh 29.26 in990.9 mb - 0.01 in0.3 mm 0.01 in0.3 mm
12:10 AM 43.7°F6.5°C 40.7°F4.8°C 89% 24.2 mph SW38.9 kmh SW 35.7 mph57.5 kmh 29.25 in990.5 mb - 0.03 in0.8 mm 0.03 in0.8 mm
12:20 AM 43.5°F6.4°C 40.5°F4.7°C 89% 15.0 mph SW24.1 kmh SW 21.9 mph35.2 kmh 29.25 in990.5 mb - 0.02 in0.5 mm 0.05 in1.3 mm
12:30 AM 43.1°F6.2°C 40.1°F4.5°C 89% 11.5 mph WSW18.5 kmh WSW 25.3 mph40.7 kmh 29.25 in990.5 mb - 0.02 in0.5 mm 0.07 in1.8 mm
12:40 AM 42.1°F5.6°C 39.1°F3.9°C 89% 11.5 mph WNW18.5 kmh WNW 23.0 mph37.0 kmh 29.24 in990.2 mb - 0.04 in1.0 mm 0.11 in2.8 mm
12:50 AM 42.0°F5.6°C 39.0°F3.9°C 89% 11.5 mph SW18.5 kmh SW 19.6 mph31.5 kmh 29.23 in989.8 mb - 0.01 in0.3 mm 0.12 in3.0 mm
01:00 AM 42.2°F5.7°C 39.2°F4.0°C 89% 9.2 mph WSW14.8 kmh WSW 18.4 mph29.6 kmh 29.23 in989.8 mb - 0.01 in0.3 mm 0.13 in3.3 mm
01:10 AM 42.3°F5.7°C 39.3°F4.1°C 89% 9.2 mph W14.8 kmh W 16.1 mph25.9 kmh 29.23 in989.8 mb - 0.00 in0.0 mm 0.13 in3.3 mm
01:20 AM 40.2°F4.6°C 37.2°F2.9°C 89% 9.2 mph W14.8 kmh W 13.8 mph22.2 kmh 29.24 in990.2 mb - 0.00 in0.0 mm 0.13 in3.3 mm
01:30 AM 39.1°F3.9°C 36.1°F2.3°C 89% 9.2 mph WNW14.8 kmh WNW 19.6 mph31.5 kmh 29.25 in990.5 mb - 0.00 in0.0 mm 0.13 in3.3 mm
01:40 AM 37.3°F2.9°C 34.4°F1.3°C 89% 9.2 mph NW14.8 kmh NW 15.0 mph24.1 kmh 29.25 in990.5 mb - 0.00 in0.0 mm 0.13 in3.3 mm
01:50 AM 36.9°F2.7°C 34.0°F1.1°C 89% 8.1 mph NW13.0 kmh NW 13.8 mph22.2 kmh 29.26 in990.9 mb - 0.00 in0.0 mm 0.13 in3.3 mm
02:00 AM 36.5°F2.5°C 33.6°F0.9°C 89% 8.1 mph NW13.0 kmh NW 13.8 mph22.2 kmh 29.27 in991.2 mb - 0.00 in0.0 mm 0.13 in3.3 mm
02:10 AM 36.3°F2.4°C 33.3°F0.7°C 89% 8.1 mph NW13.0 kmh NW 13.8 mph22.2 kmh 29.27 in991.2 mb - 0.00 in0.0 mm 0.13 in3.3 mm
02:20 AM 36.0°F2.2°C 33.1°F0.6°C 89% 8.1 mph NW13.0 kmh NW 15.0 mph24.1 kmh 29.27 in991.2 mb - 0.00 in0.0 mm 0.13 in3.3 mm
02:30 AM 35.8°F2.1°C 32.9°F0.5°C 89% 6.9 mph NW11.1 kmh NW 11.5 mph18.5 kmh 29.27 in991.2 mb - 0.00 in0.0 mm 0.13 in3.3 mm
02:40 AM 35.7°F2.1°C 32.8°F0.4°C 89% 6.9 mph NW11.1 kmh NW 9.2 mph14.8 kmh 29.27 in991.2 mb - 0.00 in0.0 mm 0.13 in3.3 mm
02:50 AM 35.6°F2.0°C 32.7°F0.4°C 89% 8.1 mph NW13.0 kmh NW 12.7 mph20.4 kmh 29.27 in991.2 mb - 0.00 in0.0 mm 0.13 in3.3 mm
03:00 AM 35.6°F2.0°C 32.7°F0.4°C 89% 5.8 mph NW9.3 kmh NW 8.1 mph13.0 kmh 29.27 in991.2 mb - 0.00 in0.0 mm 0.13 in3.3 mm
03:10 AM 35.8°F2.1°C 32.9°F0.5°C 89% 6.9 mph NW11.1 kmh NW 9.2 mph14.8 kmh 29.27 in991.2 mb - 0.00 in0.0 mm 0.13 in3.3 mm
03:20 AM 35.9°F2.2°C 33.0°F0.6°C 89% 3.5 mph WNW5.6 kmh WNW 9.2 mph14.8 kmh 29.28 in991.5 mb - 0.00 in0.0 mm 0.13 in3.3 mm
03:30 AM 36.2°F2.3°C 33.3°F0.7°C 89% 5.8 mph NW9.3 kmh NW 9.2 mph14.8 kmh 29.29 in991.9 mb - 0.00 in0.0 mm 0.13 in3.3 mm
03:40 AM 36.5°F2.5°C 33.6°F0.9°C 89% 4.6 mph NW7.4 kmh NW 11.5 mph18.5 kmh 29.29 in991.9 mb - 0.00 in0.0 mm 0.13 in3.3 mm
03:50 AM 36.7°F2.6°C 33.8°F1.0°C 89% 6.9 mph NW11.1 kmh NW 11.5 mph18.5 kmh 29.30 in992.2 mb - 0.00 in0.0 mm 0.13 in3.3 mm
04:00 AM 37.0°F2.8°C 33.7°F0.9°C 88% 4.6 mph NW7.4 kmh NW 8.1 mph13.0 kmh 29.30 in992.2 mb - 0.00 in0.0 mm 0.13 in3.3 mm
04:10 AM 37.2°F2.9°C 34.0°F1.1°C 88% 4.6 mph WNW7.4 kmh WNW 8.1 mph13.0 kmh 29.30 in992.2 mb - 0.00 in0.0 mm 0.13 in3.3 mm
04:20 AM 37.6°F3.1°C 34.4°F1.3°C 88% 4.6 mph NW7.4 kmh NW 8.1 mph13.0 kmh 29.31 in992.6 mb - 0.00 in0.0 mm 0.13 in3.3 mm
04:30 AM 37.8°F3.2°C 34.6°F1.4°C 88% 8.1 mph NW13.0 kmh NW 12.7 mph20.4 kmh 29.32 in992.9 mb - 0.00 in0.0 mm 0.13 in3.3 mm
04:40 AM 38.1°F3.4°C 34.6°F1.4°C 87% 5.8 mph NW9.3 kmh NW 12.7 mph20.4 kmh 29.32 in992.9 mb - 0.00 in0.0 mm 0.13 in3.3 mm
04:50 AM 38.1°F3.4°C 34.6°F1.4°C 87% 9.2 mph NW14.8 kmh NW 13.8 mph22.2 kmh 29.32 in992.9 mb - 0.00 in0.0 mm 0.13 in3.3 mm
05:00 AM 38.3°F3.5°C 34.5°F1.4°C 86% 8.1 mph NW13.0 kmh NW 12.7 mph20.4 kmh 29.33 in993.2 mb - 0.00 in0.0 mm 0.13 in3.3 mm
05:10 AM 38.4°F3.6°C 34.6°F1.4°C 86% 8.1 mph NW13.0 kmh NW 11.5 mph18.5 kmh 29.34 in993.6 mb - 0.00 in0.0 mm 0.13 in3.3 mm
05:20 AM 38.7°F3.7°C 34.5°F1.4°C 85% 8.1 mph NW13.0 kmh NW 13.8 mph22.2 kmh 29.34 in993.6 mb - 0.00 in0.0 mm 0.13 in3.3 mm
05:30 AM 38.6°F3.7°C 34.5°F1.4°C 85% 8.1 mph NW13.0 kmh NW 11.5 mph18.5 kmh 29.35 in993.9 mb - 0.00 in0.0 mm 0.13 in3.3 mm
05:40 AM 38.5°F3.6°C 34.4°F1.3°C 85% 8.1 mph NW13.0 kmh NW 12.7 mph20.4 kmh 29.36 in994.2 mb - 0.00 in0.0 mm 0.13 in3.3 mm
05:50 AM 38.4°F3.6°C 34.3°F1.3°C 85% 8.1 mph NW13.0 kmh NW 12.7 mph20.4 kmh 29.36 in994.2 mb - 0.00 in0.0 mm 0.13 in3.3 mm
06:00 AM 38.4°F3.6°C 34.0°F1.1°C 84% 6.9 mph NW11.1 kmh NW 13.8 mph22.2 kmh 29.37 in994.6 mb - 0.00 in0.0 mm 0.13 in3.3 mm
06:10 AM 38.2°F3.4°C 33.8°F1.0°C 84% 5.8 mph WNW9.3 kmh WNW 9.2 mph14.8 kmh 29.38 in994.9 mb - 0.00 in0.0 mm 0.13 in3.3 mm
06:20 AM 38.0°F3.3°C 33.6°F0.9°C 84% 8.1 mph NW13.0 kmh NW 9.2 mph14.8 kmh 29.39 in995.3 mb - 0.00 in0.0 mm 0.13 in3.3 mm
06:30 AM 37.9°F3.3°C 33.5°F0.8°C 84% 8.1 mph NW13.0 kmh NW 11.5 mph18.5 kmh 29.40 in995.6 mb - 0.00 in0.0 mm 0.13 in3.3 mm
06:40 AM 38.1°F3.4°C 33.4°F0.8°C 83% 6.9 mph NW11.1 kmh NW 11.5 mph18.5 kmh 29.41 in995.9 mb - 0.00 in0.0 mm 0.13 in3.3 mm
06:50 AM 38.2°F3.4°C 33.5°F0.8°C 83% 6.9 mph NW11.1 kmh NW 13.8 mph22.2 kmh 29.43 in996.6 mb - 0.00 in0.0 mm 0.13 in3.3 mm
07:00 AM 38.2°F3.4°C 33.5°F0.8°C 83% 6.9 mph WNW11.1 kmh WNW 9.2 mph14.8 kmh 29.44 in997.0 mb - 0.00 in0.0 mm 0.13 in3.3 mm
07:10 AM 38.3°F3.5°C 33.6°F0.9°C 83% 6.9 mph NW11.1 kmh NW 16.1 mph25.9 kmh 29.44 in997.0 mb - 0.00 in0.0 mm 0.13 in3.3 mm
07:20 AM 38.2°F3.4°C 33.2°F0.7°C 82% 9.2 mph NW14.8 kmh NW 16.1 mph25.9 kmh 29.45 in997.3 mb - 0.00 in0.0 mm 0.13 in3.3 mm
07:30 AM 38.0°F3.3°C 33.0°F0.6°C 82% 5.8 mph NW9.3 kmh NW 11.5 mph18.5 kmh 29.46 in997.6 mb - 0.00 in0.0 mm 0.13 in3.3 mm
07:40 AM 37.6°F3.1°C 32.6°F0.3°C 82% 4.6 mph WNW7.4 kmh WNW 9.2 mph14.8 kmh 29.47 in998.0 mb - 0.00 in0.0 mm 0.13 in3.3 mm
07:50 AM 37.2°F2.9°C 32.2°F0.1°C 82% 6.9 mph NW11.1 kmh NW 13.8 mph22.2 kmh 29.47 in998.0 mb - 0.00 in0.0 mm 0.13 in3.3 mm
08:00 AM 37.1°F2.8°C 32.1°F0.1°C 82% 4.6 mph NW7.4 kmh NW 6.9 mph11.1 kmh 29.48 in998.3 mb - 0.00 in0.0 mm 0.13 in3.3 mm
08:10 AM 36.8°F2.7°C 32.2°F0.1°C 83% 4.6 mph NW7.4 kmh NW 8.1 mph13.0 kmh 29.48 in998.3 mb - 0.00 in0.0 mm 0.13 in3.3 mm
08:20 AM 36.7°F2.6°C 32.0°F0.0°C 83% 5.8 mph NW9.3 kmh NW 8.1 mph13.0 kmh 29.49 in998.6 mb - 0.00 in0.0 mm 0.13 in3.3 mm
08:30 AM 36.6°F2.6°C 31.9°F-0.1°C 83% 2.3 mph WNW3.7 kmh WNW 8.1 mph13.0 kmh 29.49 in998.6 mb - 0.00 in0.0 mm 0.13 in3.3 mm
08:40 AM 36.4°F2.4°C 31.7°F-0.2°C 83% 5.8 mph WNW9.3 kmh WNW 11.5 mph18.5 kmh 29.50 in999.0 mb - 0.00 in0.0 mm 0.13 in3.3 mm
08:50 AM 36.4°F2.4°C 31.7°F-0.2°C 83% 4.6 mph WNW7.4 kmh WNW 6.9 mph11.1 kmh 29.51 in999.3 mb - 0.00 in0.0 mm 0.13 in3.3 mm
09:00 AM 36.6°F2.6°C 31.9°F-0.1°C 83% 2.3 mph WNW3.7 kmh WNW 8.1 mph13.0 kmh 29.51 in999.3 mb - 0.00 in0.0 mm 0.13 in3.3 mm
09:10 AM 37.0°F2.8°C 32.3°F0.2°C 83% 3.5 mph NW5.6 kmh NW 8.1 mph13.0 kmh 29.52 in999.7 mb - 0.00 in0.0 mm 0.13 in3.3 mm
09:20 AM 37.5°F3.1°C 32.2°F0.1°C 81% 6.9 mph NW11.1 kmh NW 12.7 mph20.4 kmh 29.52 in999.7 mb - 0.00 in0.0 mm 0.13 in3.3 mm
09:30 AM 37.5°F3.1°C 32.2°F0.1°C 81% 8.1 mph NW13.0 kmh NW 16.1 mph25.9 kmh 29.53 in1000.0 mb - 0.00 in0.0 mm 0.13 in3.3 mm
09:40 AM 37.3°F2.9°C 32.3°F0.2°C 82% 8.1 mph WNW13.0 kmh WNW 15.0 mph24.1 kmh 29.54 in1000.3 mb - 0.00 in0.0 mm 0.13 in3.3 mm
09:50 AM 37.4°F3.0°C 32.4°F0.2°C 82% 10.4 mph WNW16.7 kmh WNW 13.8 mph22.2 kmh 29.54 in1000.3 mb - 0.00 in0.0 mm 0.13 in3.3 mm
10:00 AM 37.6°F3.1°C 32.6°F0.3°C 82% 8.1 mph WNW13.0 kmh WNW 12.7 mph20.4 kmh 29.54 in1000.3 mb - 0.00 in0.0 mm 0.13 in3.3 mm
10:10 AM 38.1°F3.4°C 32.7°F0.4°C 81% 5.8 mph WNW9.3 kmh WNW 13.8 mph22.2 kmh 29.55 in1000.7 mb - 0.00 in0.0 mm 0.13 in3.3 mm
10:20 AM 38.4°F3.6°C 32.8°F0.4°C 80% 5.8 mph WNW9.3 kmh WNW 12.7 mph20.4 kmh 29.55 in1000.7 mb - 0.00 in0.0 mm 0.13 in3.3 mm
10:30 AM 38.7°F3.7°C 32.7°F0.4°C 79% 8.1 mph WNW13.0 kmh WNW 13.8 mph22.2 kmh 29.56 in1001.0 mb - 0.00 in0.0 mm 0.13 in3.3 mm
10:40 AM 39.1°F3.9°C 32.8°F0.4°C 78% 5.8 mph NW9.3 kmh NW 11.5 mph18.5 kmh 29.57 in1001.4 mb - 0.00 in0.0 mm 0.13 in3.3 mm
10:50 AM 39.5°F4.2°C 33.2°F0.7°C 78% 6.9 mph WNW11.1 kmh WNW 8.1 mph13.0 kmh 29.57 in1001.4 mb - 0.00 in0.0 mm 0.13 in3.3 mm
11:00 AM 39.7°F4.3°C 32.7°F0.4°C 76% 8.1 mph NW13.0 kmh NW 13.8 mph22.2 kmh 29.58 in1001.7 mb - 0.00 in0.0 mm 0.13 in3.3 mm
11:10 AM 39.9°F4.4°C 32.9°F0.5°C 76% 6.9 mph NW11.1 kmh NW 11.5 mph18.5 kmh 29.59 in1002.0 mb - 0.00 in0.0 mm 0.13 in3.3 mm
11:20 AM 40.3°F4.6°C 32.7°F0.4°C 74% 6.9 mph NW11.1 kmh NW 13.8 mph22.2 kmh 29.59 in1002.0 mb - 0.00 in0.0 mm 0.13 in3.3 mm
11:30 AM 40.5°F4.7°C 32.9°F0.5°C 74% 5.8 mph NW9.3 kmh NW 8.1 mph13.0 kmh 29.59 in1002.0 mb - 0.00 in0.0 mm 0.13 in3.3 mm
11:40 AM 40.8°F4.9°C 32.8°F0.4°C 73% 4.6 mph NW7.4 kmh NW 9.2 mph14.8 kmh 29.60 in1002.4 mb - 0.00 in0.0 mm 0.13 in3.3 mm
11:50 AM 41.4°F5.2°C 32.7°F0.4°C 71% 6.9 mph WNW11.1 kmh WNW 15.0 mph24.1 kmh 29.61 in1002.7 mb - 0.00 in0.0 mm 0.13 in3.3 mm
12:00 PM 41.6°F5.3°C 32.5°F0.3°C 70% 6.9 mph NW11.1 kmh NW 9.2 mph14.8 kmh 29.61 in1002.7 mb - 0.00 in0.0 mm 0.13 in3.3 mm
12:10 PM 41.8°F5.4°C 32.0°F0.0°C 68% 10.4 mph NW16.7 kmh NW 18.4 mph29.6 kmh 29.62 in1003.0 mb - 0.01 in0.3 mm 0.14 in3.6 mm
12:20 PM 41.8°F5.4°C 32.0°F0.0°C 68% 9.2 mph NW14.8 kmh NW 11.5 mph18.5 kmh 29.62 in1003.0 mb - 0.00 in0.0 mm 0.14 in3.6 mm
12:30 PM 42.1°F5.6°C 32.3°F0.2°C 68% 8.1 mph NW13.0 kmh NW 16.1 mph25.9 kmh 29.62 in1003.0 mb - 0.00 in0.0 mm 0.14 in3.6 mm
12:40 PM 42.4°F5.8°C 32.6°F0.3°C 68% 3.5 mph WNW5.6 kmh WNW 9.2 mph14.8 kmh 29.62 in1003.0 mb - 0.00 in0.0 mm 0.14 in3.6 mm
12:50 PM 42.5°F5.8°C 32.3°F0.2°C 67% 6.9 mph NW11.1 kmh NW 13.8 mph22.2 kmh 29.62 in1003.0 mb - 0.00 in0.0 mm 0.14 in3.6 mm
01:00 PM 42.4°F5.8°C 32.2°F0.1°C 67% 6.9 mph NW11.1 kmh NW 11.5 mph18.5 kmh 29.63 in1003.4 mb - 0.00 in0.0 mm 0.14 in3.6 mm
01:10 PM 42.7°F5.9°C 32.9°F0.5°C 68% 4.6 mph WNW7.4 kmh WNW 6.9 mph11.1 kmh 29.63 in1003.4 mb - 0.00 in0.0 mm 0.14 in3.6 mm
01:20 PM 42.9°F6.1°C 32.3°F0.2°C 66% 8.1 mph WNW13.0 kmh WNW 13.8 mph22.2 kmh 29.63 in1003.4 mb - 0.00 in0.0 mm 0.14 in3.6 mm
01:30 PM 43.0°F6.1°C 31.6°F-0.2°C 64% 9.2 mph NW14.8 kmh NW 13.8 mph22.2 kmh 29.63 in1003.4 mb - 0.00 in0.0 mm 0.14 in3.6 mm
01:40 PM 42.9°F6.1°C 30.4°F-0.9°C 61% 6.9 mph NW11.1 kmh NW 11.5 mph18.5 kmh 29.62 in1003.0 mb - 0.00 in0.0 mm 0.14 in3.6 mm
01:50 PM 43.0°F6.1°C 30.1°F-1.1°C 60% 9.2 mph NW14.8 kmh NW 13.8 mph22.2 kmh 29.63 in1003.4 mb - 0.00 in0.0 mm 0.14 in3.6 mm
02:00 PM 43.0°F6.1°C 30.1°F-1.1°C 60% 6.9 mph NW11.1 kmh NW 9.2 mph14.8 kmh 29.63 in1003.4 mb - 0.00 in0.0 mm 0.14 in3.6 mm
02:10 PM 43.4°F6.3°C 31.2°F-0.4°C 62% 4.6 mph WNW7.4 kmh WNW 9.2 mph14.8 kmh 29.63 in1003.4 mb - 0.00 in0.0 mm 0.14 in3.6 mm
02:20 PM 43.5°F6.4°C 30.9°F-0.6°C 61% 8.1 mph WNW13.0 kmh WNW 15.0 mph24.1 kmh 29.63 in1003.4 mb - 0.00 in0.0 mm 0.14 in3.6 mm
02:30 PM 43.5°F6.4°C 31.7°F-0.2°C 63% 6.9 mph WNW11.1 kmh WNW 9.2 mph14.8 kmh 29.63 in1003.4 mb - 0.00 in0.0 mm 0.14 in3.6 mm
02:40 PM 43.7°F6.5°C 31.5°F-0.3°C 62% 8.1 mph WNW13.0 kmh WNW 11.5 mph18.5 kmh 29.63 in1003.4 mb - 0.00 in0.0 mm 0.14 in3.6 mm
02:50 PM 43.8°F6.6°C 32.4°F0.2°C 64% 5.8 mph WNW9.3 kmh WNW 9.2 mph14.8 kmh 29.63 in1003.4 mb - 0.00 in0.0 mm 0.14 in3.6 mm
03:00 PM 43.9°F6.6°C 32.1°F0.1°C 63% 5.8 mph WNW9.3 kmh WNW 8.1 mph13.0 kmh 29.64 in1003.7 mb - 0.00 in0.0 mm 0.14 in3.6 mm
03:10 PM 44.1°F6.7°C 32.3°F0.2°C 63% 5.8 mph WNW9.3 kmh WNW 8.1 mph13.0 kmh 29.64 in1003.7 mb - 0.00 in0.0 mm 0.14 in3.6 mm
03:20 PM 43.9°F6.6°C 31.7°F-0.2°C 62% 5.8 mph W9.3 kmh W 8.1 mph13.0 kmh 29.64 in1003.7 mb - 0.00 in0.0 mm 0.14 in3.6 mm
03:30 PM 44.2°F6.8°C 32.0°F0.0°C 62% 4.6 mph WNW7.4 kmh WNW 8.1 mph13.0 kmh 29.64 in1003.7 mb - 0.00 in0.0 mm 0.14 in3.6 mm
03:40 PM 44.2°F6.8°C 31.6°F-0.2°C 61% 3.5 mph W5.6 kmh W 8.1 mph13.0 kmh 29.64 in1003.7 mb - 0.00 in0.0 mm 0.14 in3.6 mm
03:50 PM 44.0°F6.7°C 31.0°F-0.6°C 60% 4.6 mph WNW7.4 kmh WNW 11.5 mph18.5 kmh 29.64 in1003.7 mb - 0.00 in0.0 mm 0.14 in3.6 mm
04:00 PM 43.3°F6.3°C 30.8°F-0.7°C 61% 4.6 mph WNW7.4 kmh WNW 9.2 mph14.8 kmh 29.65 in1004.1 mb - 0.00 in0.0 mm 0.14 in3.6 mm
04:10 PM 43.4°F6.3°C 31.3°F-0.4°C 62% 3.5 mph WSW5.6 kmh WSW 5.8 mph9.3 kmh 29.65 in1004.1 mb - 0.00 in0.0 mm 0.14 in3.6 mm
04:20 PM 43.3°F6.3°C 31.2°F-0.4°C 62% 5.8 mph W9.3 kmh W 11.5 mph18.5 kmh 29.66 in1004.4 mb - 0.00 in0.0 mm 0.14 in3.6 mm
04:30 PM 43.0°F6.1°C 30.8°F-0.7°C 62% 4.6 mph WNW7.4 kmh WNW 10.4 mph16.7 kmh 29.66 in1004.4 mb - 0.00 in0.0 mm 0.14 in3.6 mm
04:40 PM 42.6°F5.9°C 30.5°F-0.8°C 62% 4.6 mph WNW7.4 kmh WNW 8.1 mph13.0 kmh 29.66 in1004.4 mb - 0.00 in0.0 mm 0.14 in3.6 mm
04:50 PM 42.5°F5.8°C 30.4°F-0.9°C 62% 2.3 mph W3.7 kmh W 8.1 mph13.0 kmh 29.67 in1004.7 mb - 0.00 in0.0 mm 0.14 in3.6 mm
05:00 PM 42.7°F5.9°C 31.4°F-0.3°C 64% Calm Calm -- 29.68 in1005.1 mb - 0.00 in0.0 mm 0.14 in3.6 mm
05:10 PM 42.7°F5.9°C 31.4°F-0.3°C 64% Calm Calm -- 29.68 in1005.1 mb - 0.00 in0.0 mm 0.14 in3.6 mm
05:20 PM 41.7°F5.4°C 32.3°F0.2°C 69% Calm Calm -- 29.67 in1004.7 mb - 0.00 in0.0 mm 0.14 in3.6 mm
05:30 PM 40.6°F4.8°C 32.6°F0.3°C 73% Calm Calm -- 29.68 in1005.1 mb - 0.00 in0.0 mm 0.14 in3.6 mm
05:40 PM 39.9°F4.4°C 32.3°F0.2°C 74% 1.2 mph WNW1.9 kmh WNW 2.3 mph3.7 kmh 29.67 in1004.7 mb - 0.00 in0.0 mm 0.14 in3.6 mm
05:50 PM 39.5°F4.2°C 31.9°F-0.1°C 74% 1.2 mph W1.9 kmh W 4.6 mph7.4 kmh 29.67 in1004.7 mb - 0.00 in0.0 mm 0.14 in3.6 mm
06:00 PM 39.3°F4.1°C 32.0°F0.0°C 75% 1.2 mph WSW1.9 kmh WSW 4.6 mph7.4 kmh 29.68 in1005.1 mb - 0.00 in0.0 mm 0.14 in3.6 mm
06:10 PM 38.9°F3.8°C 31.6°F-0.2°C 75% 1.2 mph WSW1.9 kmh WSW 2.3 mph3.7 kmh 29.68 in1005.1 mb - 0.00 in0.0 mm 0.14 in3.6 mm
06:20 PM 38.9°F3.8°C 31.3°F-0.4°C 74% 1.2 mph WNW1.9 kmh WNW 5.8 mph9.3 kmh 29.67 in1004.7 mb - 0.00 in0.0 mm 0.14 in3.6 mm
06:30 PM 39.3°F4.1°C 31.0°F-0.6°C 72% Calm Calm -- 29.67 in1004.7 mb - 0.00 in0.0 mm 0.14 in3.6 mm
06:40 PM 39.0°F3.9°C 30.7°F-0.7°C 72% Calm Calm -- 29.68 in1005.1 mb - 0.00 in0.0 mm 0.14 in3.6 mm
06:50 PM 37.7°F3.2°C 30.8°F-0.7°C 76% Calm Calm -- 29.68 in1005.1 mb - 0.00 in0.0 mm 0.14 in3.6 mm
07:00 PM 36.9°F2.7°C 30.7°F-0.7°C 78% Calm Calm -- 29.68 in1005.1 mb - 0.00 in0.0 mm 0.14 in3.6 mm
07:10 PM 36.8°F2.7°C 30.9°F-0.6°C 79% Calm Calm -- 29.67 in1004.7 mb - 0.00 in0.0 mm 0.14 in3.6 mm
07:20 PM 36.7°F2.6°C 30.8°F-0.7°C 79% Calm Calm -- 29.67 in1004.7 mb - 0.00 in0.0 mm 0.14 in3.6 mm
07:30 PM 35.9°F2.2°C 30.0°F-1.1°C 79% Calm Calm -- 29.67 in1004.7 mb - 0.00 in0.0 mm 0.14 in3.6 mm
07:40 PM 35.1°F1.7°C 29.9°F-1.2°C 81% Calm Calm -- 29.67 in1004.7 mb - 0.00 in0.0 mm 0.14 in3.6 mm
07:50 PM 34.8°F1.6°C 29.9°F-1.2°C 82% Calm Calm -- 29.66 in1004.4 mb - 0.00 in0.0 mm 0.14 in3.6 mm
08:00 PM 34.5°F1.4°C 29.6°F-1.3°C 82% Calm Calm -- 29.66 in1004.4 mb - 0.00 in0.0 mm 0.14 in3.6 mm
08:10 PM 34.4°F1.3°C 29.8°F-1.2°C 83% Calm Calm -- 29.66 in1004.4 mb - 0.00 in0.0 mm 0.14 in3.6 mm
08:20 PM 34.6°F1.4°C 30.0°F-1.1°C 83% Calm Calm -- 29.65 in1004.1 mb - 0.00 in0.0 mm 0.14 in3.6 mm
08:30 PM 34.0°F1.1°C 29.4°F-1.4°C 83% Calm Calm -- 29.65 in1004.1 mb - 0.00 in0.0 mm 0.14 in3.6 mm
08:40 PM 33.5°F0.8°C 28.9°F-1.7°C 83% Calm Calm -- 29.65 in1004.1 mb - 0.00 in0.0 mm 0.14 in3.6 mm
08:50 PM 33.2°F0.7°C 28.9°F-1.7°C 84% Calm Calm -- 29.64 in1003.7 mb - 0.00 in0.0 mm 0.14 in3.6 mm
09:00 PM 33.7°F0.9°C 29.7°F-1.3°C 85% Calm Calm -- 29.64 in1003.7 mb - 0.00 in0.0 mm 0.14 in3.6 mm
09:10 PM 34.0°F1.1°C 29.6°F-1.3°C 84% Calm Calm -- 29.63 in1003.4 mb - 0.00 in0.0 mm 0.14 in3.6 mm
09:20 PM 33.7°F0.9°C 29.4°F-1.4°C 84% Calm Calm -- 29.62 in1003.0 mb - 0.00 in0.0 mm 0.14 in3.6 mm
09:30 PM 34.0°F1.1°C 30.0°F-1.1°C 85% Calm Calm -- 29.62 in1003.0 mb - 0.00 in0.0 mm 0.14 in3.6 mm
09:40 PM 34.2°F1.2°C 30.2°F-1.0°C 85% Calm Calm -- 29.62 in1003.0 mb - 0.00 in0.0 mm 0.14 in3.6 mm
09:50 PM 35.3°F1.8°C 31.2°F-0.4°C 85% 1.2 mph SW1.9 kmh SW 4.6 mph7.4 kmh 29.62 in1003.0 mb - 0.00 in0.0 mm 0.14 in3.6 mm
10:00 PM 37.4°F3.0°C 33.0°F0.6°C 84% 5.8 mph SW9.3 kmh SW 8.1 mph13.0 kmh 29.61 in1002.7 mb - 0.00 in0.0 mm 0.14 in3.6 mm
10:10 PM 39.0°F3.9°C 33.3°F0.7°C 80% 4.6 mph SSW7.4 kmh SSW 6.9 mph11.1 kmh 29.61 in1002.7 mb - 0.00 in0.0 mm 0.14 in3.6 mm
10:20 PM 39.7°F4.3°C 33.4°F0.8°C 78% 4.6 mph SW7.4 kmh SW 12.7 mph20.4 kmh 29.60 in1002.4 mb - 0.00 in0.0 mm 0.14 in3.6 mm
10:30 PM 40.3°F4.6°C 33.4°F0.8°C 76% 6.9 mph SSW11.1 kmh SSW 8.1 mph13.0 kmh 29.59 in1002.0 mb - 0.00 in0.0 mm 0.14 in3.6 mm
10:40 PM 40.7°F4.8°C 33.8°F1.0°C 76% 6.9 mph SSW11.1 kmh SSW 16.1 mph25.9 kmh 29.59 in1002.0 mb - 0.00 in0.0 mm 0.14 in3.6 mm
10:50 PM 40.9°F4.9°C 35.2°F1.8°C 80% 5.8 mph WSW9.3 kmh WSW 11.5 mph18.5 kmh 29.59 in1002.0 mb - 0.00 in0.0 mm 0.14 in3.6 mm
11:00 PM 40.6°F4.8°C 35.5°F1.9°C 82% 6.9 mph WSW11.1 kmh WSW 11.5 mph18.5 kmh 29.59 in1002.0 mb - 0.00 in0.0 mm 0.14 in3.6 mm
11:10 PM 40.8°F4.9°C 35.7°F2.1°C 82% 9.2 mph S14.8 kmh S 11.5 mph18.5 kmh 29.58 in1001.7 mb - 0.00 in0.0 mm 0.14 in3.6 mm
11:20 PM 41.9°F5.5°C 35.3°F1.8°C 77% 13.8 mph S22.2 kmh S 19.6 mph31.5 kmh 29.57 in1001.4 mb - 0.00 in0.0 mm 0.14 in3.6 mm
11:30 PM 42.3°F5.7°C 35.6°F2.0°C 77% 10.4 mph SSW16.7 kmh SSW 21.9 mph35.2 kmh 29.57 in1001.4 mb - 0.00 in0.0 mm 0.14 in3.6 mm
11:40 PM 42.6°F5.9°C 36.2°F2.3°C 78% 11.5 mph S18.5 kmh S 18.4 mph29.6 kmh 29.55 in1000.7 mb - 0.00 in0.0 mm 0.14 in3.6 mm
11:50 PM 42.5°F5.8°C 36.7°F2.6°C 80% 9.2 mph WSW14.8 kmh WSW 13.8 mph22.2 kmh 29.56 in1001.0 mb - 0.00 in0.0 mm 0.14 in3.6 mm